Time;durP1;ratioP1;P1;durP2;ratioP2;P2;SDS_P1;SDS_P2;PMS_P1;PMS_P2;Temp;Humidity;BMP_temperature;BMP_pressure;BME280_temperature;BME280_humidity;BME280_pressure;Samples;Min_cycle;Max_cycle;Signal;HPM_P1;HPM_P2
2023/01/14 00:01:18;;;;;;;8.13;1.90;;;3.30;99.90;;;2.46;100.00;97637.44;5031554;28;20072;-36
2023/01/14 00:03:44;;;;;;;5.30;1.50;;;3.30;99.90;;;2.44;100.00;97639.19;5047460;28;20082;-36
2023/01/14 00:06:14;;;;;;;4.03;1.50;;;3.30;99.90;;;2.42;100.00;97638.34;5053072;28;20104;-36
2023/01/14 00:08:41;;;;;;;5.72;1.70;;;3.30;99.90;;;2.34;100.00;97627.03;5047307;28;20274;-36
2023/01/14 00:11:09;;;;;;;6.85;1.65;;;3.30;99.90;;;2.34;100.00;97632.25;5047440;28;20029;-36
2023/01/14 00:13:38;;;;;;;5.57;1.40;;;3.20;99.90;;;2.28;100.00;97632.28;5045944;28;20488;-36
2023/01/14 00:16:06;;;;;;;2.67;1.15;;;3.10;99.90;;;2.22;100.00;97634.84;5049002;28;20040;-36
2023/01/14 00:18:34;;;;;;;7.13;1.33;;;3.10;99.90;;;2.15;100.00;97625.31;5047252;28;20028;-37
2023/01/14 00:21:05;;;;;;;5.45;1.70;;;3.00;99.90;;;2.13;100.00;97634.84;5051578;28;20028;-36
2023/01/14 00:23:34;;;;;;;3.00;1.30;;;3.00;99.90;;;2.07;100.00;97641.78;5047227;28;20031;-36
2023/01/14 00:26:11;;;;;;;5.22;1.42;;;2.90;99.90;;;2.03;100.00;97642.66;5050139;28;20021;-37
2023/01/14 00:28:36;;;;;;;8.20;1.40;;;2.90;99.90;;;1.95;100.00;97641.78;5049040;28;20116;-36
2023/01/14 00:31:18;;;;;;;5.55;1.33;;;2.80;99.90;;;1.90;100.00;97643.50;5048273;28;20032;-36
2023/01/14 00:33:44;;;;;;;4.28;1.00;;;2.80;99.90;;;1.86;100.00;97629.63;5046016;28;20036;-36
2023/01/14 00:36:14;;;;;;;5.75;1.38;;;2.70;99.90;;;1.83;100.00;97640.03;5050396;28;20024;-36
2023/01/14 00:38:40;;;;;;;6.85;1.38;;;2.70;99.90;;;1.83;100.00;97639.16;5047960;28;20022;-36
2023/01/14 00:41:12;;;;;;;5.47;1.58;;;2.70;99.90;;;1.81;100.00;97630.47;5046976;28;20028;-37
2023/01/14 00:43:40;;;;;;;3.28;1.00;;;2.70;99.90;;;1.80;100.00;97641.78;5048846;28;20259;-36
2023/01/14 00:46:10;;;;;;;6.93;1.45;;;2.70;99.90;;;1.77;100.00;97628.75;5030605;28;20021;-36
2023/01/14 00:48:37;;;;;;;3.10;1.17;;;2.60;99.90;;;1.70;100.00;97625.28;5049060;28;20026;-36
2023/01/14 00:51:04;;;;;;;3.60;1.23;;;2.60;99.90;;;1.73;100.00;97630.47;5048967;28;20029;-37
2023/01/14 00:53:29;;;;;;;4.90;1.30;;;2.60;99.90;;;1.73;100.00;97629.63;5046204;28;20058;-36
2023/01/14 00:55:56;;;;;;;3.85;1.40;;;2.50;99.90;;;1.66;100.00;97626.13;5051085;28;20035;-37
2023/01/14 00:58:22;;;;;;;3.60;1.27;;;2.60;99.90;;;1.69;100.00;97629.59;5047484;28;20107;-36
2023/01/14 01:00:48;;;;;;;3.72;1.13;;;2.60;99.90;;;1.71;100.00;97624.41;5048332;28;20158;-37
2023/01/14 01:03:14;;;;;;;4.70;1.40;;;2.60;99.90;;;1.74;100.00;97633.94;5047628;28;20149;-37
2023/01/14 01:05:40;;;;;;;5.03;1.60;;;2.60;99.90;;;1.77;100.00;97627.00;5047250;28;20112;-36
2023/01/14 01:08:09;;;;;;;6.05;1.63;;;2.60;99.90;;;1.80;100.00;97642.63;5048751;28;20050;-36
2023/01/14 01:10:35;;;;;;;3.33;1.05;;;2.60;99.90;;;1.63;100.00;97616.56;5030024;28;20442;-36
2023/01/14 01:13:02;;;;;;;4.85;1.30;;;2.60;99.90;;;1.76;100.00;97637.41;5046668;28;20145;-36
2023/01/14 01:15:33;;;;;;;6.20;1.20;;;2.60;99.90;;;1.79;100.00;97637.41;5047113;28;20025;-37
2023/01/14 01:17:59;;;;;;;3.92;1.15;;;2.70;99.90;;;1.77;100.00;97644.34;5048290;28;20029;-36
2023/01/14 01:20:25;;;;;;;6.15;1.35;;;2.60;99.90;;;1.78;100.00;97646.97;5048496;28;20040;-37
2023/01/14 01:22:50;;;;;;;2.53;1.08;;;2.70;99.90;;;1.80;100.00;97644.38;5048075;28;20104;-36
2023/01/14 01:25:16;;;;;;;4.03;1.13;;;2.60;99.90;;;1.71;100.00;97630.47;5046066;28;20320;-36
2023/01/14 01:27:42;;;;;;;3.95;1.10;;;2.60;99.90;;;1.74;100.00;97634.81;5046583;28;20310;-37
2023/01/14 01:30:09;;;;;;;5.25;1.10;;;2.70;99.90;;;1.78;100.00;97649.56;5049024;28;20031;-37
2023/01/14 01:32:35;;;;;;;6.35;1.45;;;2.70;99.90;;;1.81;100.00;97652.19;5046028;28;20043;-37
2023/01/14 01:35:00;;;;;;;6.10;1.00;;;2.70;99.90;;;1.77;100.00;97647.81;5031358;28;20524;-36
2023/01/14 01:37:27;;;;;;;6.70;1.10;;;2.70;99.90;;;1.80;100.00;97663.44;5048584;28;20061;-36
2023/01/14 01:39:54;;;;;;;4.40;1.33;;;2.70;99.90;;;1.83;100.00;97667.75;5048717;28;20035;-36
2023/01/14 01:42:23;;;;;;;5.72;1.20;;;2.70;99.90;;;1.78;100.00;97672.97;5045373;28;20032;-36
2023/01/14 01:44:48;;;;;;;7.32;1.27;;;2.70;99.90;;;1.75;100.00;97678.16;5046275;28;20049;-36
2023/01/14 01:47:16;;;;;;;5.47;1.10;;;2.60;99.90;;;1.70;100.00;97685.94;5048512;28;20067;-37
2023/01/14 01:49:42;;;;;;;6.28;1.50;;;2.60;99.90;;;1.66;100.00;97685.94;5030600;28;20029;-36
2023/01/14 01:52:25;;;;;;;5.78;1.00;;;2.50;99.90;;;1.61;100.00;97678.09;5027130;28;20036;-36
2023/01/14 01:55:01;;;;;;;7.78;1.10;;;2.50;99.90;;;1.55;100.00;97667.69;5044814;28;20046;-36
2023/01/14 01:57:27;;;;;;;5.00;1.20;;;2.50;99.90;;;1.58;100.00;97677.22;5045656;28;20035;-36
2023/01/14 01:59:58;;;;;;;4.20;1.38;;;2.50;99.90;;;1.58;100.00;97680.72;5028006;28;20153;-36
2023/01/14 02:02:25;;;;;;;4.70;1.35;;;2.50;99.90;;;1.58;100.00;97682.44;5045119;28;20078;-36
2023/01/14 02:04:51;;;;;;;3.45;1.05;;;2.50;99.90;;;1.61;100.00;97691.09;5030676;28;20036;-37
2023/01/14 02:07:24;;;;;;;2.60;1.30;;;2.50;99.90;;;1.63;100.00;97689.38;5049330;28;20052;-36
2023/01/14 02:10:02;;;;;;;5.25;1.08;;;2.50;99.90;;;1.47;100.00;97656.41;5045083;28;20032;-36
2023/01/14 02:12:52;;;;;;;5.32;1.30;;;2.50;99.90;;;1.64;100.00;97677.28;5025912;28;20032;-36
2023/01/14 02:15:46;;;;;;;5.72;1.33;;;2.50;99.90;;;1.67;100.00;97680.75;5045340;28;20029;-36
2023/01/14 02:18:35;;;;;;;6.32;1.35;;;2.60;99.90;;;1.70;100.00;97690.28;5028364;28;20203;-36
2023/01/14 02:21:24;;;;;;;7.05;1.40;;;2.60;99.90;;;1.65;100.00;97666.88;5046400;28;20025;-36
2023/01/14 02:24:03;;;;;;;3.42;1.13;;;2.60;99.90;;;1.67;100.00;97683.34;5029254;28;20119;-36
2023/01/14 02:26:46;;;;;;;6.30;1.45;;;2.50;99.90;;;1.61;100.00;97677.25;5033973;28;20446;-36
2023/01/14 02:29:57;;;;;;;3.72;1.20;;;2.50;99.90;;;1.58;100.00;97675.53;5033363;28;20033;-36
2023/01/14 02:32:50;;;;;;;6.38;1.30;;;2.50;99.90;;;1.53;100.00;97670.28;5050244;28;20148;-36
2023/01/14 02:35:42;;;;;;;4.63;0.95;;;2.40;99.90;;;1.48;100.00;97660.75;5048816;28;20480;-36
2023/01/14 02:38:49;;;;;;;3.63;0.90;;;2.40;99.90;;;1.45;100.00;97661.59;5032362;28;20064;-37
2023/01/14 02:44:22;;;;;;;4.90;1.40;;;2.30;99.90;;;1.43;100.00;97663.31;5036528;23;20061;-46
2023/01/14 02:46:57;;;;;;;2.38;1.08;;;2.30;99.90;;;1.48;100.00;97655.56;5021094;28;20033;-43
2023/01/14 02:49:33;;;;;;;3.28;1.02;;;2.30;99.90;;;1.46;100.00;97652.09;5036680;28;20556;-46
2023/01/14 02:51:59;;;;;;;6.53;1.23;;;2.30;99.90;;;1.48;100.00;97652.94;5020747;28;20036;-44
2023/01/14 02:54:25;;;;;;;3.10;0.95;;;2.30;99.90;;;1.47;100.00;97656.41;5019048;28;20052;-44
2023/01/14 02:56:54;;;;;;;5.78;1.08;;;2.30;99.90;;;1.50;100.00;97654.69;5018867;28;20401;-43
2023/01/14 02:59:29;;;;;;;3.33;0.90;;;2.40;99.90;;;1.60;100.00;97654.69;5001547;28;20112;-46
2023/01/14 03:02:03;;;;;;;6.82;1.40;;;2.50;99.90;;;1.76;100.00;97658.22;4999817;28;20026;-46
2023/01/14 03:04:57;;;;;;;2.50;1.08;;;2.60;99.90;;;1.86;100.00;97657.38;5018068;28;20481;-44
2023/01/14 03:07:53;;;;;;;5.70;1.10;;;2.70;99.90;;;1.87;100.00;97653.91;5019194;28;20286;-47
2023/01/14 03:10:29;;;;;;;4.25;1.40;;;2.70;99.90;;;1.93;100.00;97658.25;4984865;28;20406;-45
2023/01/14 03:13:20;;;;;;;4.60;1.15;;;2.70;99.90;;;1.90;100.00;97641.78;5000338;28;20069;-44
2023/01/14 03:15:50;;;;;;;5.80;1.50;;;2.70;99.90;;;1.96;100.00;97635.72;5001232;28;20117;-46
2023/01/14 03:18:24;;;;;;;10.18;1.92;;;2.70;99.90;;;2.00;100.00;97632.25;5015264;28;20540;-47
2023/01/14 03:21:06;;;;;;;11.40;1.27;;;2.80;99.90;;;2.08;100.00;97635.72;5001106;28;20532;-46
2023/01/14 03:23:40;;;;;;;6.82;1.23;;;2.90;99.90;;;2.15;100.00;97620.97;4998201;28;20419;-43
2023/01/14 03:26:08;;;;;;;7.53;1.48;;;3.00;99.90;;;2.22;100.00;97614.03;5017281;28;20084;-47
2023/01/14 03:28:40;;;;;;;7.53;0.90;;;3.10;99.90;;;2.38;100.00;97633.97;5017610;28;20558;-42
2023/01/14 03:31:11;;;;;;;7.13;1.70;;;3.20;99.90;;;2.32;100.00;97628.78;5018540;28;20404;-46
2023/01/14 03:33:45;;;;;;;5.57;1.07;;;3.20;99.90;;;2.25;100.00;97621.84;5015413;28;20036;-45
2023/01/14 03:36:12;;;;;;;5.68;1.20;;;3.10;99.90;;;2.18;100.00;97617.50;4999047;28;20022;-47
2023/01/14 03:38:46;;;;;;;10.27;1.40;;;3.00;99.90;;;2.17;100.00;97628.78;5019146;28;20022;-46
2023/01/14 03:42:17;;;;;;;5.78;1.17;;;3.00;99.90;;;2.15;100.00;97628.78;5000604;28;20034;-44
2023/01/14 03:44:08;;;;;;;7.78;1.20;;;3.00;99.90;;;2.14;100.00;97613.19;5016075;28;20057;-46
2023/01/14 03:46:35;;;;;;;5.53;1.45;;;3.00;99.90;;;2.13;100.00;97616.66;5018826;28;20026;-47
2023/01/14 03:49:01;;;;;;;6.05;1.17;;;3.00;99.90;;;2.08;100.00;97622.72;5000241;28;20038;-45
2023/01/14 03:51:55;;;;;;;7.85;1.77;;;2.90;99.90;;;2.07;100.00;97622.72;5018792;28;20032;-45
2023/01/14 03:54:38;;;;;;;5.13;1.25;;;2.90;99.90;;;2.05;100.00;97620.13;5018153;28;20420;-46
2023/01/14 03:57:29;;;;;;;7.95;1.48;;;2.80;99.90;;;2.06;100.00;97614.06;5000535;28;20029;-46
2023/01/14 04:00:08;;;;;;;7.63;1.13;;;2.90;99.90;;;2.14;100.00;97608.84;5001358;28;20021;-47
2023/01/14 04:02:35;;;;;;;8.30;1.52;;;3.00;99.90;;;2.25;100.00;97599.28;5018318;28;20030;-47
2023/01/14 04:05:02;;;;;;;5.80;1.25;;;3.00;99.90;;;2.36;100.00;97590.59;4999070;28;20366;-44
2023/01/14 04:07:27;;;;;;;7.63;1.38;;;3.10;99.90;;;2.46;100.00;97585.38;5000149;28;20040;-45
2023/01/14 04:09:53;;;;;;;5.65;0.90;;;3.20;99.90;;;2.52;100.00;97578.44;5001355;28;20034;-47
2023/01/14 04:12:19;;;;;;;2.97;1.35;;;3.30;99.90;;;2.52;100.00;97583.66;5016788;28;20092;-43
2023/01/14 04:17:28;;;;;;;2.38;0.80;;;3.40;99.90;;;2.52;100.00;97575.84;5017080;28;20052;-43
2023/01/14 04:19:54;;;;;;;7.57;1.52;;;3.30;99.90;;;2.45;100.00;97572.38;5015860;28;20540;-48
2023/01/14 04:22:20;;;;;;;5.97;1.35;;;3.30;99.90;;;2.37;100.00;97568.91;5016685;28;20041;-43
2023/01/14 04:24:45;;;;;;;4.97;0.80;;;3.20;99.90;;;2.32;100.00;97576.72;5015317;28;20126;-43
2023/01/14 04:27:11;;;;;;;4.88;1.38;;;3.20;99.90;;;2.24;100.00;97568.94;5018809;28;20512;-43
2023/01/14 04:29:37;;;;;;;12.05;1.35;;;3.10;99.90;;;2.35;100.00;97565.44;5016627;28;20033;-45
2023/01/14 04:32:03;;;;;;;7.82;1.08;;;3.10;99.90;;;2.38;100.00;97562.84;5017484;28;20140;-42
2023/01/14 04:34:28;;;;;;;5.25;1.15;;;3.20;99.90;;;2.40;100.00;97559.34;5015264;28;20067;-45
2023/01/14 04:36:54;;;;;;;5.72;1.10;;;3.20;99.90;;;2.47;100.00;97555.88;5016954;28;20041;-42
2023/01/14 04:39:20;;;;;;;5.40;1.00;;;3.20;99.90;;;2.48;100.00;97557.59;5015947;28;20084;-43
2023/01/14 04:44:31;;;;;;;7.22;1.25;;;3.30;99.90;;;2.52;100.00;97553.25;5014812;28;20035;-42
2023/01/14 04:46:56;;;;;;;4.90;0.85;;;3.30;99.90;;;2.56;100.00;97554.97;5015557;28;20112;-44
2023/01/14 04:49:22;;;;;;;4.28;1.02;;;3.30;99.90;;;2.56;100.00;97557.56;5017053;28;20509;-44
2023/01/14 04:51:48;;;;;;;6.45;0.90;;;3.30;99.90;;;2.54;100.00;97550.66;5013746;28;20034;-44
2023/01/14 04:54:13;;;;;;;5.07;1.20;;;3.40;99.90;;;2.50;100.00;97555.00;5017644;28;20033;-44
2023/01/14 04:56:39;;;;;;;4.65;1.17;;;3.30;99.90;;;2.43;100.00;97551.53;5018348;28;20556;-43
2023/01/14 04:59:05;;;;;;;6.22;1.00;;;3.30;99.90;;;2.47;100.00;97561.06;5016983;28;20025;-43
2023/01/14 05:01:31;;;;;;;2.97;0.95;;;3.30;99.90;;;2.42;100.00;97556.75;5016482;28;20217;-43
2023/01/14 05:03:58;;;;;;;4.18;1.23;;;3.20;99.90;;;2.41;100.00;97558.50;5014484;28;20029;-43
2023/01/14 05:06:29;;;;;;;4.20;1.23;;;3.20;99.90;;;2.35;100.00;97555.91;5018647;28;20033;-43
2023/01/14 05:08:54;;;;;;;5.18;1.00;;;3.20;99.90;;;2.31;100.00;97559.38;5018460;28;20064;-43
2023/01/14 05:11:21;;;;;;;1.88;0.70;;;3.20;99.90;;;2.21;100.00;97550.72;5016555;28;20049;-46
2023/01/14 05:13:46;;;;;;;4.88;1.00;;;3.10;99.90;;;2.23;100.00;97550.72;5013979;28;20052;-45
2023/01/14 05:16:12;;;;;;;4.78;1.17;;;3.10;99.90;;;2.19;100.00;97547.25;5017314;28;20048;-43
2023/01/14 05:18:38;;;;;;;5.68;1.08;;;3.00;99.90;;;2.17;100.00;97551.59;5013713;28;20462;-44
2023/01/14 05:21:04;;;;;;;3.60;0.80;;;3.00;99.90;;;2.18;100.00;97553.31;5016350;28;20057;-46
2023/01/14 05:23:30;;;;;;;3.75;0.90;;;3.00;99.90;;;2.15;100.00;97549.84;5013669;28;20025;-43
2023/01/14 05:25:56;;;;;;;6.43;0.90;;;3.00;99.90;;;2.14;100.00;97543.78;5015818;28;20029;-45
2023/01/14 05:28:22;;;;;;;7.45;1.33;;;3.00;99.90;;;2.15;100.00;97542.06;5016671;28;20157;-47
2023/01/14 05:30:47;;;;;;;5.15;1.05;;;3.00;99.90;;;2.16;100.00;97538.59;5013470;28;20044;-45
2023/01/14 05:33:14;;;;;;;6.28;1.15;;;3.00;99.90;;;2.15;100.00;97548.13;5014612;28;20038;-43
2023/01/14 05:35:39;;;;;;;5.22;1.30;;;3.00;99.90;;;2.14;100.00;97546.41;5014643;28;20021;-46
2023/01/14 05:38:06;;;;;;;4.75;1.23;;;3.00;99.90;;;1.99;100.00;97522.97;5015568;28;20404;-46
2023/01/14 05:40:32;;;;;;;4.70;1.17;;;3.00;99.90;;;2.14;100.00;97537.72;5015413;28;20076;-45
2023/01/14 05:45:51;;;;;;;3.53;0.80;;;2.90;99.90;;;2.08;100.00;97525.56;5014406;28;20275;-44
2023/01/14 05:48:20;;;;;;;3.70;0.82;;;2.90;99.90;;;2.01;100.00;97518.66;4999480;28;20026;-46
2023/01/14 05:50:54;;;;;;;6.03;1.23;;;2.90;99.90;;;2.01;100.00;97514.31;5015951;28;20088;-44
2023/01/14 05:53:21;;;;;;;6.25;1.30;;;2.90;99.90;;;2.03;100.00;97519.53;5017061;28;20030;-47
2023/01/14 05:55:47;;;;;;;6.78;1.35;;;2.80;99.90;;;2.01;100.00;97513.44;5014666;28;20112;-45
2023/01/14 05:58:13;;;;;;;6.38;1.17;;;2.80;99.90;;;1.98;100.00;97516.06;5017382;28;20702;-47
2023/01/14 06:06:30;;;;;;;1.65;0.70;;;2.70;99.90;;;1.84;100.00;97510.88;5015986;28;20083;-46
2023/01/14 06:09:03;;;;;;;6.28;1.05;;;2.70;99.90;;;1.67;100.00;97477.94;4997801;28;20050;-44
2023/01/14 06:11:32;;;;;;;6.53;1.27;;;2.70;99.90;;;1.82;100.00;97487.47;5014517;28;20079;-46
2023/01/14 06:13:58;;;;;;;5.32;0.90;;;2.60;99.90;;;1.80;100.00;97494.41;5014961;28;20468;-43
2023/01/14 06:16:39;;;;;;;4.63;0.80;;;2.60;99.90;;;1.81;100.00;97497.84;5015499;28;21967;-47
2023/01/14 06:19:08;;;;;;;6.05;0.98;;;2.60;99.90;;;1.76;100.00;97497.88;5015346;28;20037;-43
2023/01/14 06:21:35;;;;;;;2.53;1.20;;;2.60;99.90;;;1.76;100.00;97499.59;5014664;28;20517;-44
2023/01/14 06:24:00;;;;;;;6.93;1.33;;;2.60;99.90;;;1.73;100.00;97502.22;5014402;28;20291;-43
2023/01/14 06:26:29;;;;;;;7.20;1.10;;;2.60;99.90;;;1.66;100.00;97497.00;5014736;28;20481;-47
2023/01/14 06:29:07;;;;;;;5.53;1.23;;;2.60;99.90;;;1.74;100.00;97501.31;5015367;28;20014;-46
2023/01/14 06:31:34;;;;;;;7.32;1.40;;;2.60;99.90;;;1.74;100.00;97506.53;5012567;28;20520;-45
2023/01/14 06:34:01;;;;;;;6.32;1.10;;;2.50;99.90;;;1.71;100.00;97497.88;5013901;28;20094;-46
2023/01/14 06:36:28;;;;;;;5.65;0.98;;;2.50;99.90;;;1.67;100.00;97498.75;5015364;28;20142;-44
2023/01/14 06:38:54;;;;;;;4.65;1.33;;;2.50;99.90;;;1.66;100.00;97490.94;5012968;28;20041;-46
2023/01/14 06:41:20;;;;;;;5.20;0.82;;;2.50;99.90;;;1.62;100.00;97490.06;5014104;28;20026;-44
2023/01/14 06:43:46;;;;;;;3.60;0.93;;;2.50;99.90;;;1.64;100.00;97490.06;5013902;28;20100;-42
2023/01/14 06:46:15;;;;;;;6.20;1.00;;;2.50;99.90;;;1.68;100.00;97491.81;5014567;28;20037;-43
2023/01/14 06:48:43;;;;;;;5.50;1.00;;;2.50;99.90;;;1.77;100.00;97489.19;5015831;28;20485;-45
2023/01/14 06:51:15;;;;;;;3.72;1.10;;;2.60;99.90;;;1.88;100.00;97482.28;4999238;28;20532;-47
2023/01/14 06:53:41;;;;;;;;;;;2.70;99.90;;;1.98;100.00;97474.44;5013260;28;20026;-44
2023/01/14 06:56:10;;;;;;;5.00;1.00;;;2.80;99.90;;;2.13;100.00;97482.22;5016950;28;19979;-43
2023/01/14 06:58:36;;;;;;;4.70;1.42;;;2.90;99.90;;;2.26;100.00;97467.41;5016283;28;20112;-43
2023/01/14 07:01:02;;;;;;;9.77;1.13;;;3.10;99.90;;;2.36;100.00;97458.72;5016344;28;20469;-42
2023/01/14 07:03:29;;;;;;;8.10;1.20;;;3.20;99.90;;;2.51;100.00;97456.94;5013993;28;20038;-43
2023/01/14 07:05:54;;;;;;;3.08;0.85;;;3.30;99.90;;;2.57;100.00;97449.13;5014999;28;20474;-43
2023/01/14 07:08:21;;;;;;;2.70;1.00;;;3.40;99.90;;;2.66;100.00;97449.06;5013812;28;20101;-43
2023/01/14 07:10:49;;;;;;;7.18;1.33;;;3.50;99.90;;;2.73;100.00;97457.69;5017314;28;20226;-44
2023/01/14 07:13:17;;;;;;;5.55;1.25;;;3.50;99.90;;;2.62;100.00;97431.72;5018359;28;20048;-43
2023/01/14 07:15:43;;;;;;;8.07;1.33;;;3.50;99.90;;;2.77;100.00;97449.03;5019025;28;20052;-43
2023/01/14 07:18:10;;;;;;;7.07;1.17;;;3.60;99.90;;;2.85;100.00;97435.09;5018431;28;20029;-42
2023/01/14 07:20:35;;;;;;;4.97;1.02;;;3.60;99.90;;;2.91;100.00;97441.09;5018063;28;20700;-43
2023/01/14 07:23:02;;;;;;;4.90;1.00;;;3.70;99.90;;;2.91;100.00;97446.31;5017643;28;20053;-43
2023/01/14 07:25:27;;;;;;;5.45;1.20;;;3.70;99.90;;;2.92;100.00;97437.63;5018029;28;20031;-43
2023/01/14 07:27:53;;;;;;;3.97;1.08;;;3.70;99.90;;;2.88;100.00;97436.78;5017734;28;20033;-43
2023/01/14 07:30:19;;;;;;;8.63;1.35;;;3.70;99.90;;;2.82;100.00;97421.22;5016691;28;20036;-43
2023/01/14 07:32:44;;;;;;;6.40;1.20;;;3.60;99.90;;;2.80;100.00;97425.53;5015772;28;20397;-42
2023/01/14 07:35:10;;;;;;;4.60;1.33;;;3.60;99.90;;;2.78;100.00;97416.88;5015890;28;20513;-45
2023/01/14 07:37:36;;;;;;;8.65;1.25;;;3.60;99.90;;;2.79;100.00;97416.88;5017179;28;20022;-45
2023/01/14 07:40:03;;;;;;;5.72;1.13;;;3.60;99.90;;;2.90;100.00;97408.97;5017940;28;20540;-44
2023/01/14 07:42:29;;;;;;;6.38;1.23;;;3.70;99.90;;;3.01;100.00;97396.75;5016883;28;20083;-47
2023/01/14 07:44:54;;;;;;;11.35;1.52;;;3.80;99.90;;;3.08;100.00;97394.97;5016490;28;20030;-47
2023/01/14 07:47:20;;;;;;;6.90;1.20;;;3.90;99.90;;;3.10;100.00;97394.97;5017313;28;20083;-47
2023/01/14 07:49:46;;;;;;;5.18;1.60;;;3.90;99.90;;;3.17;100.00;97381.00;5018622;28;20044;-48
2023/01/14 07:52:12;;;;;;;9.98;1.80;;;4.00;99.90;;;3.23;100.00;97374.00;5017911;28;20513;-48
2023/01/14 07:54:40;;;;;;;8.30;1.40;;;4.00;99.90;;;3.37;100.00;97376.47;5017031;28;20083;-46
2023/01/14 07:57:09;;;;;;;6.40;1.45;;;4.10;99.90;;;3.54;100.00;97378.94;5018093;28;20041;-47
2023/01/14 07:59:35;;;;;;;10.70;1.60;;;4.30;99.90;;;3.60;100.00;97376.28;5018996;28;20108;-46
2023/01/14 08:02:00;;;;;;;4.32;1.40;;;4.40;99.90;;;3.68;100.00;97370.13;5017185;28;20100;-46
2023/01/14 08:04:26;;;;;;;8.88;1.30;;;4.50;99.90;;;3.82;100.00;97370.84;5016175;28;20148;-48
2023/01/14 08:06:52;;;;;;;11.13;2.20;;;4.60;99.90;;;3.88;100.00;97364.72;5019301;28;20524;-47
2023/01/14 08:09:17;;;;;;;7.65;1.65;;;4.70;99.90;;;3.93;100.00;97358.56;5017050;28;20104;-47
2023/01/14 08:11:44;;;;;;;4.07;1.40;;;4.80;99.90;;;4.02;100.00;97365.44;5017346;28;20084;-46
2023/01/14 08:14:10;;;;;;;8.32;1.70;;;4.80;99.90;;;4.05;100.00;97364.50;5015619;28;20115;-47
2023/01/14 08:16:35;;;;;;;9.57;1.85;;;4.90;99.90;;;4.14;100.00;97367.88;5017982;28;20546;-47
2023/01/14 08:19:01;;;;;;;7.55;1.23;;;4.90;99.90;;;4.23;100.00;97361.69;5017641;28;20412;-45
2023/01/14 08:21:27;;;;;;;7.57;1.52;;;5.00;99.90;;;4.36;100.00;97365.00;5017448;28;20021;-45
2023/01/14 08:23:52;;;;;;;6.65;1.60;;;5.10;99.90;;;4.47;100.00;97357.03;5014942;28;21821;-47
2023/01/14 08:26:18;;;;;;;7.35;1.58;;;5.20;99.90;;;4.52;100.00;97358.72;5017292;28;20036;-48
2023/01/14 08:28:44;;;;;;;9.25;1.67;;;5.30;99.90;;;4.58;100.00;97352.53;5011878;28;20030;-46
2023/01/14 08:31:13;;;;;;;12.02;1.90;;;5.40;99.90;;;4.66;100.00;97357.66;5019061;28;20524;-47
2023/01/14 08:33:41;;;;;;;10.73;1.95;;;5.40;99.90;;;4.69;100.00;97358.47;5014306;28;20029;-46
2023/01/14 08:36:16;;;;;;;6.25;1.50;;;5.50;99.90;;;4.79;100.00;97367.00;5015467;28;20596;-46
2023/01/14 08:38:48;;;;;;;8.20;1.65;;;5.50;99.90;;;4.89;100.00;97358.16;5017727;28;20265;-47
2023/01/14 08:41:15;;;;;;;8.38;1.70;;;5.60;99.90;;;4.99;100.00;97366.75;5016380;28;20077;-47
2023/01/14 08:43:42;;;;;;;10.93;1.73;;;5.70;99.90;;;4.98;100.00;97357.16;5044830;22;20044;-37
2023/01/14 08:46:09;;;;;;;5.20;1.73;;;5.80;99.90;;;5.10;100.00;97361.34;5049933;28;20029;-37
2023/01/14 08:48:36;;;;;;;6.00;1.70;;;5.80;99.90;;;5.15;100.00;97351.66;5048763;28;20492;-37
2023/01/14 08:51:06;;;;;;;8.23;1.70;;;5.90;99.90;;;5.22;100.00;97349.81;5051246;28;20131;-37
2023/01/14 08:53:35;;;;;;;12.07;1.63;;;5.90;99.90;;;5.26;100.00;97343.66;5048152;28;20135;-37
2023/01/14 08:56:02;;;;;;;8.82;1.63;;;6.00;99.90;;;5.39;100.00;97339.94;5050146;28;20037;-37
2023/01/14 08:58:27;;;;;;;7.50;1.65;;;6.10;99.90;;;5.49;100.00;97325.81;5049585;28;20024;-36
2023/01/14 09:00:59;;;;;;;7.15;1.63;;;6.20;99.90;;;5.58;100.00;97324.81;5048472;28;20033;-36
2023/01/14 09:03:27;;;;;;;6.00;1.40;;;6.30;99.90;;;5.65;100.00;97336.00;5047437;28;20037;-36
2023/01/14 09:06:01;;;;;;;3.65;1.20;;;6.40;99.90;;;5.79;100.00;97335.75;5045742;28;20075;-36
2023/01/14 09:19:49;;;;;;;7.50;1.63;;;6.80;99.90;;;6.10;100.00;97329.06;5028579;28;20044;-37
2023/01/14 09:22:26;;;;;;;10.40;1.80;;;6.80;99.90;;;6.11;100.00;97315.06;5041466;28;20412;-36
2023/01/14 09:24:52;;;;;;;4.75;1.65;;;6.90;99.90;;;6.12;100.00;97302.84;5028756;28;20025;-36
2023/01/14 09:27:19;;;;;;;7.60;1.33;;;6.80;99.90;;;6.12;100.00;97315.94;5025760;28;20028;-37
2023/01/14 09:29:44;;;;;;;5.50;1.65;;;6.90;99.90;;;6.16;100.00;97320.22;5029122;28;20025;-37
2023/01/14 09:32:12;;;;;;;7.28;2.10;;;6.90;99.90;;;6.19;100.00;97312.31;5045010;28;20106;-37
2023/01/14 09:34:41;;;;;;;6.03;1.75;;;6.90;99.90;;;6.24;100.00;97317.44;5048601;28;20408;-37
2023/01/14 09:37:08;;;;;;;4.65;1.63;;;7.00;99.90;;;6.33;100.00;97316.38;5046492;28;20021;-37
2023/01/14 09:39:34;;;;;;;7.38;1.42;;;7.00;99.90;;;6.39;100.00;97308.38;5047292;28;20071;-37
2023/01/14 09:42:12;;;;;;;5.90;1.60;;;7.10;99.90;;;6.49;100.00;97302.91;5048490;28;20013;-37
2023/01/14 09:44:41;;;;;;;8.80;1.65;;;7.20;99.90;;;6.59;100.00;97303.56;5029931;28;20037;-37
2023/01/14 09:47:13;;;;;;;6.00;1.55;;;7.30;99.90;;;6.74;100.00;97311.97;5029665;28;20082;-37
2023/01/14 09:49:39;;;;;;;;;;;7.40;99.90;;;6.85;100.00;97302.94;5051005;28;20284;-37
2023/01/14 09:52:39;;;;;;;6.60;1.20;;;7.50;99.90;;;6.94;100.00;97294.00;5030808;28;20137;-37
2023/01/14 09:55:17;;;;;;;5.90;1.40;;;7.70;99.90;;;7.11;100.00;97301.47;5028602;28;20020;-37
2023/01/14 09:58:02;;;;;;;6.28;1.10;;;7.80;99.90;;;7.18;100.00;97299.56;5032290;28;20020;-37
2023/01/14 10:00:48;;;;;;;11.55;4.55;;;7.90;99.90;;;7.25;100.00;97288.88;5031430;28;20025;-37
2023/01/14 10:03:48;;;;;;;3.88;1.02;;;8.00;99.90;;;7.40;100.00;97292.00;5028193;28;20074;-37
2023/01/14 10:06:17;;;;;;;5.53;1.13;;;8.10;99.90;;;7.51;100.00;97291.72;5045262;28;20076;-37
2023/01/14 10:09:10;;;;;;;3.03;1.13;;;8.20;99.90;;;7.63;100.00;97288.78;5032240;28;20060;-37
2023/01/14 10:11:40;;;;;;;3.50;1.33;;;8.30;99.90;;;7.68;100.00;97279.03;5029436;28;20036;-37
2023/01/14 10:14:22;;;;;;;5.70;1.00;;;8.40;99.90;;;7.77;100.00;97281.38;5045735;28;20029;-37
2023/01/14 10:16:54;;;;;;;3.10;1.25;;;8.50;99.90;;;7.88;100.00;97277.59;5031005;28;20028;-37
2023/01/14 10:19:49;;;;;;;5.95;1.33;;;8.50;99.90;;;7.97;100.00;97261.59;5028690;28;20029;-37
2023/01/14 10:22:39;;;;;;;2.35;0.90;;;8.60;99.90;;;7.89;100.00;97221.56;5044753;28;20505;-37
2023/01/14 10:25:19;;;;;;;2.45;1.00;;;8.70;99.90;;;8.06;100.00;97236.81;5048811;28;20086;-37
2023/01/14 10:27:52;;;;;;;3.60;1.33;;;8.70;99.90;;;8.10;100.00;97214.81;5047331;28;20031;-37
2023/01/14 10:30:32;;;;;;;3.60;0.93;;;8.80;99.90;;;8.08;100.00;97179.84;5044586;28;20495;-37
2023/01/14 10:33:02;;;;;;;3.35;1.10;;;8.80;99.90;;;8.00;100.00;97183.56;5048079;28;20037;-37
2023/01/14 10:35:39;;;;;;;5.97;1.20;;;8.70;99.90;;;8.01;100.00;97179.19;5030190;28;20029;-37
2023/01/14 10:38:05;;;;;;;4.78;1.13;;;8.70;99.90;;;8.01;100.00;97179.19;5027942;28;20511;-37
2023/01/14 10:40:32;;;;;;;3.67;1.25;;;8.70;99.90;;;8.05;100.00;97187.81;5047787;28;20059;-37
2023/01/14 10:43:00;;;;;;;6.07;1.52;;;8.70;99.90;;;8.06;100.00;97179.91;5030530;28;20029;-37
2023/01/14 10:45:26;;;;;;;3.80;1.00;;;8.70;99.90;;;8.19;100.00;97188.25;5047965;28;20029;-37
2023/01/14 10:48:02;;;;;;;3.08;1.00;;;8.80;99.90;;;8.23;100.00;97171.50;5052513;28;20043;-37
2023/01/14 10:50:29;;;;;;;2.03;0.90;;;8.80;99.90;;;8.27;100.00;97169.63;5037494;28;20353;-37
2023/01/14 10:53:14;;;;;;;1.92;0.95;;;8.90;99.90;;;8.29;100.00;97166.06;5049448;28;20033;-37
2023/01/14 10:55:49;;;;;;;4.10;1.00;;;8.90;99.90;;;8.30;100.00;97159.88;5051527;28;20087;-37
2023/01/14 10:58:29;;;;;;;5.00;1.60;;;9.00;99.90;;;8.23;100.00;97153.94;5051074;28;20036;-37
2023/01/14 11:01:05;;;;;;;2.90;1.10;;;8.90;99.90;;;8.31;100.00;97152.84;5034288;28;20439;-37
2023/01/14 11:03:37;;;;;;;2.60;0.82;;;8.90;99.90;;;8.28;100.00;97129.31;5031852;28;20020;-38
2023/01/14 11:06:04;;;;;;;5.20;1.00;;;9.00;99.90;;;8.31;100.00;97137.09;5035644;28;20025;-37
2023/01/14 11:08:38;;;;;;;2.72;1.00;;;8.90;99.90;;;8.30;100.00;97124.88;5037423;28;20037;-37